sensor_id;sensor_type;location;lat;lon;timestamp;temperature;humidity
69503;SHT31;56704;54.242;12.442;2023-11-21T00:02:23;6.51;91.41
69503;SHT31;56704;54.242;12.442;2023-11-21T00:04:50;6.46;91.37
69503;SHT31;56704;54.242;12.442;2023-11-21T00:07:17;6.37;91.47
69503;SHT31;56704;54.242;12.442;2023-11-21T00:09:44;6.32;91.69
69503;SHT31;56704;54.242;12.442;2023-11-21T00:12:10;6.31;91.85
69503;SHT31;56704;54.242;12.442;2023-11-21T00:14:39;6.31;91.96
69503;SHT31;56704;54.242;12.442;2023-11-21T00:17:06;6.28;92.16
69503;SHT31;56704;54.242;12.442;2023-11-21T00:19:34;6.25;92.23
69503;SHT31;56704;54.242;12.442;2023-11-21T00:22:00;6.24;92.36
69503;SHT31;56704;54.242;12.442;2023-11-21T00:24:27;6.24;92.35
69503;SHT31;56704;54.242;12.442;2023-11-21T00:26:53;6.27;92.45
69503;SHT31;56704;54.242;12.442;2023-11-21T00:29:20;6.21;92.42
69503;SHT31;56704;54.242;12.442;2023-11-21T00:31:47;6.21;92.39
69503;SHT31;56704;54.242;12.442;2023-11-21T00:34:13;6.21;92.50
69503;SHT31;56704;54.242;12.442;2023-11-21T00:36:41;6.20;92.43
69503;SHT31;56704;54.242;12.442;2023-11-21T00:39:08;6.25;92.41
69503;SHT31;56704;54.242;12.442;2023-11-21T00:41:34;6.27;92.39
69503;SHT31;56704;54.242;12.442;2023-11-21T00:44:01;6.27;92.38
69503;SHT31;56704;54.242;12.442;2023-11-21T00:46:28;6.28;92.44
69503;SHT31;56704;54.242;12.442;2023-11-21T00:48:54;6.34;92.46
69503;SHT31;56704;54.242;12.442;2023-11-21T00:51:21;6.31;92.36
69503;SHT31;56704;54.242;12.442;2023-11-21T00:53:49;6.31;92.24
69503;SHT31;56704;54.242;12.442;2023-11-21T00:56:16;6.27;92.04
69503;SHT31;56704;54.242;12.442;2023-11-21T00:58:42;6.25;92.01
69503;SHT31;56704;54.242;12.442;2023-11-21T01:01:11;6.24;91.94
69503;SHT31;56704;54.242;12.442;2023-11-21T01:03:38;6.22;91.90
69503;SHT31;56704;54.242;12.442;2023-11-21T01:06:05;6.27;91.93
69503;SHT31;56704;54.242;12.442;2023-11-21T01:08:33;6.27;91.95
69503;SHT31;56704;54.242;12.442;2023-11-21T01:11:01;6.25;91.97
69503;SHT31;56704;54.242;12.442;2023-11-21T01:13:27;6.28;92.06
69503;SHT31;56704;54.242;12.442;2023-11-21T01:15:55;6.32;92.21
69503;SHT31;56704;54.242;12.442;2023-11-21T01:18:21;6.38;92.25
69503;SHT31;56704;54.242;12.442;2023-11-21T01:20:50;6.46;92.29
69503;SHT31;56704;54.242;12.442;2023-11-21T01:23:18;6.48;92.28
69503;SHT31;56704;54.242;12.442;2023-11-21T01:25:45;6.51;92.26
69503;SHT31;56704;54.242;12.442;2023-11-21T01:28:13;6.48;92.29
69503;SHT31;56704;54.242;12.442;2023-11-21T01:30:41;6.51;92.43
69503;SHT31;56704;54.242;12.442;2023-11-21T01:33:08;6.54;92.44
69503;SHT31;56704;54.242;12.442;2023-11-21T01:35:34;6.52;92.30
69503;SHT31;56704;54.242;12.442;2023-11-21T01:38:01;6.48;92.28
69503;SHT31;56704;54.242;12.442;2023-11-21T01:40:29;6.46;92.30
69503;SHT31;56704;54.242;12.442;2023-11-21T01:42:55;6.49;92.32
69503;SHT31;56704;54.242;12.442;2023-11-21T01:45:24;6.42;92.16
69503;SHT31;56704;54.242;12.442;2023-11-21T01:47:51;6.42;91.92
69503;SHT31;56704;54.242;12.442;2023-11-21T01:50:18;6.41;91.95
69503;SHT31;56704;54.242;12.442;2023-11-21T01:52:47;6.45;92.06
69503;SHT31;56704;54.242;12.442;2023-11-21T01:55:16;6.46;92.07
69503;SHT31;56704;54.242;12.442;2023-11-21T01:57:44;6.44;91.72
69503;SHT31;56704;54.242;12.442;2023-11-21T02:00:12;6.37;91.70
69503;SHT31;56704;54.242;12.442;2023-11-21T02:02:43;6.37;91.83
69503;SHT31;56704;54.242;12.442;2023-11-21T02:05:10;6.34;91.74
69503;SHT31;56704;54.242;12.442;2023-11-21T02:07:38;6.37;91.74
69503;SHT31;56704;54.242;12.442;2023-11-21T02:10:05;6.42;91.78
69503;SHT31;56704;54.242;12.442;2023-11-21T02:12:32;6.45;91.79
69503;SHT31;56704;54.242;12.442;2023-11-21T02:14:59;6.42;91.62
69503;SHT31;56704;54.242;12.442;2023-11-21T02:17:25;6.45;91.62
69503;SHT31;56704;54.242;12.442;2023-11-21T02:19:54;6.44;91.66
69503;SHT31;56704;54.242;12.442;2023-11-21T02:22:21;6.46;91.65
69503;SHT31;56704;54.242;12.442;2023-11-21T02:24:53;6.45;91.66
69503;SHT31;56704;54.242;12.442;2023-11-21T02:27:19;6.44;91.57
69503;SHT31;56704;54.242;12.442;2023-11-21T02:29:48;6.38;91.52
69503;SHT31;56704;54.242;12.442;2023-11-21T02:32:15;6.40;91.54
69503;SHT31;56704;54.242;12.442;2023-11-21T02:34:44;6.35;91.43
69503;SHT31;56704;54.242;12.442;2023-11-21T02:37:11;6.32;91.43
69503;SHT31;56704;54.242;12.442;2023-11-21T02:39:37;6.28;91.45
69503;SHT31;56704;54.242;12.442;2023-11-21T02:42:05;6.24;91.52
69503;SHT31;56704;54.242;12.442;2023-11-21T02:44:32;6.22;91.69
69503;SHT31;56704;54.242;12.442;2023-11-21T02:46:58;6.14;91.79
69503;SHT31;56704;54.242;12.442;2023-11-21T02:49:25;6.10;92.05
69503;SHT31;56704;54.242;12.442;2023-11-21T02:51:53;6.06;92.08
69503;SHT31;56704;54.242;12.442;2023-11-21T02:54:20;6.04;92.27
69503;SHT31;56704;54.242;12.442;2023-11-21T02:56:47;6.00;92.21
69503;SHT31;56704;54.242;12.442;2023-11-21T02:59:16;5.99;92.18
69503;SHT31;56704;54.242;12.442;2023-11-21T03:01:42;5.97;92.23
69503;SHT31;56704;54.242;12.442;2023-11-21T03:04:09;5.94;92.22
69503;SHT31;56704;54.242;12.442;2023-11-21T03:06:36;5.90;92.35
69503;SHT31;56704;54.242;12.442;2023-11-21T03:09:03;5.86;92.30
69503;SHT31;56704;54.242;12.442;2023-11-21T03:11:31;5.81;92.32
69503;SHT31;56704;54.242;12.442;2023-11-21T03:13:58;5.79;92.50
69503;SHT31;56704;54.242;12.442;2023-11-21T03:16:26;5.79;92.71
69503;SHT31;56704;54.242;12.442;2023-11-21T03:18:52;5.79;92.69
69503;SHT31;56704;54.242;12.442;2023-11-21T03:21:19;5.76;92.79
69503;SHT31;56704;54.242;12.442;2023-11-21T03:23:45;5.73;92.86
69503;SHT31;56704;54.242;12.442;2023-11-21T03:26:12;5.74;92.97
69503;SHT31;56704;54.242;12.442;2023-11-21T03:28:39;5.73;92.93
69503;SHT31;56704;54.242;12.442;2023-11-21T03:31:06;5.67;93.01
69503;SHT31;56704;54.242;12.442;2023-11-21T03:33:35;5.65;93.09
69503;SHT31;56704;54.242;12.442;2023-11-21T03:36:02;5.69;93.11
69503;SHT31;56704;54.242;12.442;2023-11-21T03:38:29;5.67;93.11
69503;SHT31;56704;54.242;12.442;2023-11-21T03:40:55;5.66;93.15
69503;SHT31;56704;54.242;12.442;2023-11-21T03:43:22;5.69;93.19
69503;SHT31;56704;54.242;12.442;2023-11-21T03:45:49;5.65;93.01
69503;SHT31;56704;54.242;12.442;2023-11-21T03:48:16;5.62;92.72
69503;SHT31;56704;54.242;12.442;2023-11-21T03:50:44;5.60;92.46
69503;SHT31;56704;54.242;12.442;2023-11-21T03:53:12;5.59;92.40
69503;SHT31;56704;54.242;12.442;2023-11-21T03:55:39;5.62;92.37
69503;SHT31;56704;54.242;12.442;2023-11-21T03:58:04;5.58;92.31
69503;SHT31;56704;54.242;12.442;2023-11-21T04:00:31;5.55;92.20
69503;SHT31;56704;54.242;12.442;2023-11-21T04:02:58;5.55;92.17
69503;SHT31;56704;54.242;12.442;2023-11-21T04:05:24;5.49;92.18
69503;SHT31;56704;54.242;12.442;2023-11-21T04:07:52;5.50;92.35
69503;SHT31;56704;54.242;12.442;2023-11-21T04:10:19;5.52;92.43
69503;SHT31;56704;54.242;12.442;2023-11-21T04:12:45;5.52;92.54
69503;SHT31;56704;54.242;12.442;2023-11-21T04:15:12;5.52;92.60
69503;SHT31;56704;54.242;12.442;2023-11-21T04:17:39;5.50;92.63
69503;SHT31;56704;54.242;12.442;2023-11-21T04:20:07;5.46;92.72
69503;SHT31;56704;54.242;12.442;2023-11-21T04:22:36;5.48;92.76
69503;SHT31;56704;54.242;12.442;2023-11-21T04:25:07;5.48;92.88
69503;SHT31;56704;54.242;12.442;2023-11-21T04:27:34;5.55;92.99
69503;SHT31;56704;54.242;12.442;2023-11-21T04:30:01;5.60;93.02
69503;SHT31;56704;54.242;12.442;2023-11-21T04:32:27;5.63;93.04
69503;SHT31;56704;54.242;12.442;2023-11-21T04:34:54;5.59;92.94
69503;SHT31;56704;54.242;12.442;2023-11-21T04:37:20;5.59;92.86
69503;SHT31;56704;54.242;12.442;2023-11-21T04:39:47;5.53;92.69
69503;SHT31;56704;54.242;12.442;2023-11-21T04:42:15;5.49;92.65
69503;SHT31;56704;54.242;12.442;2023-11-21T04:44:41;5.53;92.58
69503;SHT31;56704;54.242;12.442;2023-11-21T04:47:09;5.56;92.62
69503;SHT31;56704;54.242;12.442;2023-11-21T04:49:35;5.53;92.51
69503;SHT31;56704;54.242;12.442;2023-11-21T04:52:02;5.53;92.41
69503;SHT31;56704;54.242;12.442;2023-11-21T04:54:30;5.49;92.22
69503;SHT31;56704;54.242;12.442;2023-11-21T04:56:57;5.49;92.24
69503;SHT31;56704;54.242;12.442;2023-11-21T04:59:25;5.50;92.20
69503;SHT31;56704;54.242;12.442;2023-11-21T05:01:52;5.52;92.27
69503;SHT31;56704;54.242;12.442;2023-11-21T05:04:19;5.55;92.32
69503;SHT31;56704;54.242;12.442;2023-11-21T05:06:45;5.58;92.28
69503;SHT31;56704;54.242;12.442;2023-11-21T05:09:13;5.63;92.37
69503;SHT31;56704;54.242;12.442;2023-11-21T05:11:41;5.67;92.41
69503;SHT31;56704;54.242;12.442;2023-11-21T05:14:07;5.69;92.43
69503;SHT31;56704;54.242;12.442;2023-11-21T05:16:36;5.67;92.30
69503;SHT31;56704;54.242;12.442;2023-11-21T05:19:03;5.65;92.08
69503;SHT31;56704;54.242;12.442;2023-11-21T05:21:30;5.62;92.15
69503;SHT31;56704;54.242;12.442;2023-11-21T05:23:57;5.62;92.12
69503;SHT31;56704;54.242;12.442;2023-11-21T05:26:24;5.58;92.11
69503;SHT31;56704;54.242;12.442;2023-11-21T05:28:51;5.60;92.08
69503;SHT31;56704;54.242;12.442;2023-11-21T05:31:17;5.53;91.98
69503;SHT31;56704;54.242;12.442;2023-11-21T05:33:46;5.50;92.02
69503;SHT31;56704;54.242;12.442;2023-11-21T05:36:12;5.50;92.10
69503;SHT31;56704;54.242;12.442;2023-11-21T05:38:39;5.46;92.03
69503;SHT31;56704;54.242;12.442;2023-11-21T05:41:06;5.42;92.06
69503;SHT31;56704;54.242;12.442;2023-11-21T05:43:35;5.38;92.14
69503;SHT31;56704;54.242;12.442;2023-11-21T05:46:02;5.32;92.13
69503;SHT31;56704;54.242;12.442;2023-11-21T05:48:28;5.25;92.31
69503;SHT31;56704;54.242;12.442;2023-11-21T05:50:56;5.18;92.35
69503;SHT31;56704;54.242;12.442;2023-11-21T05:53:24;5.12;92.44
69503;SHT31;56704;54.242;12.442;2023-11-21T05:55:50;5.09;92.54
69503;SHT31;56704;54.242;12.442;2023-11-21T05:58:17;5.08;92.65
69503;SHT31;56704;54.242;12.442;2023-11-21T06:01:11;5.07;92.78
69503;SHT31;56704;54.242;12.442;2023-11-21T06:03:38;5.09;92.92
69503;SHT31;56704;54.242;12.442;2023-11-21T06:06:07;5.11;92.98
69503;SHT31;56704;54.242;12.442;2023-11-21T06:08:33;5.11;93.08
69503;SHT31;56704;54.242;12.442;2023-11-21T06:11:00;5.11;92.95
69503;SHT31;56704;54.242;12.442;2023-11-21T06:13:26;5.12;93.03
69503;SHT31;56704;54.242;12.442;2023-11-21T06:15:53;5.15;93.00
69503;SHT31;56704;54.242;12.442;2023-11-21T06:18:20;5.15;92.98
69503;SHT31;56704;54.242;12.442;2023-11-21T06:20:47;5.19;92.99
69503;SHT31;56704;54.242;12.442;2023-11-21T06:23:15;5.22;92.96
69503;SHT31;56704;54.242;12.442;2023-11-21T06:25:41;5.21;92.93
69503;SHT31;56704;54.242;12.442;2023-11-21T06:28:08;5.22;92.88
69503;SHT31;56704;54.242;12.442;2023-11-21T06:30:35;5.19;92.89
69503;SHT31;56704;54.242;12.442;2023-11-21T06:33:02;5.19;92.84
69503;SHT31;56704;54.242;12.442;2023-11-21T06:35:28;5.18;92.87
69503;SHT31;56704;54.242;12.442;2023-11-21T06:37:57;5.14;92.86
69503;SHT31;56704;54.242;12.442;2023-11-21T06:40:26;5.12;92.92
69503;SHT31;56704;54.242;12.442;2023-11-21T06:42:52;5.11;92.95
69503;SHT31;56704;54.242;12.442;2023-11-21T06:45:19;5.09;92.99
69503;SHT31;56704;54.242;12.442;2023-11-21T06:47:46;5.07;93.08
69503;SHT31;56704;54.242;12.442;2023-11-21T06:50:13;5.09;93.28
69503;SHT31;56704;54.242;12.442;2023-11-21T06:52:40;5.15;93.42
69503;SHT31;56704;54.242;12.442;2023-11-21T06:55:07;5.21;93.56
69503;SHT31;56704;54.242;12.442;2023-11-21T06:57:36;5.25;93.49
69503;SHT31;56704;54.242;12.442;2023-11-21T07:00:04;5.24;93.49
69503;SHT31;56704;54.242;12.442;2023-11-21T07:02:34;5.31;93.66
69503;SHT31;56704;54.242;12.442;2023-11-21T07:05:00;5.34;93.64
69503;SHT31;56704;54.242;12.442;2023-11-21T07:07:27;5.32;93.66
69503;SHT31;56704;54.242;12.442;2023-11-21T07:09:54;5.31;93.63
69503;SHT31;56704;54.242;12.442;2023-11-21T07:12:20;5.32;93.75
69503;SHT31;56704;54.242;12.442;2023-11-21T07:14:50;5.39;93.77
69503;SHT31;56704;54.242;12.442;2023-11-21T07:17:16;5.45;93.71
69503;SHT31;56704;54.242;12.442;2023-11-21T07:19:43;5.45;93.52
69503;SHT31;56704;54.242;12.442;2023-11-21T07:22:10;5.45;93.44
69503;SHT31;56704;54.242;12.442;2023-11-21T07:24:37;5.42;93.09
69503;SHT31;56704;54.242;12.442;2023-11-21T07:27:03;5.42;92.85
69503;SHT31;56704;54.242;12.442;2023-11-21T07:29:30;5.43;92.60
69503;SHT31;56704;54.242;12.442;2023-11-21T07:31:58;5.43;91.88
69503;SHT31;56704;54.242;12.442;2023-11-21T07:34:25;5.43;91.60
69503;SHT31;56704;54.242;12.442;2023-11-21T07:36:52;5.48;91.22
69503;SHT31;56704;54.242;12.442;2023-11-21T07:39:19;5.48;91.03
69503;SHT31;56704;54.242;12.442;2023-11-21T07:41:46;5.56;90.53
69503;SHT31;56704;54.242;12.442;2023-11-21T07:44:14;5.55;90.49
69503;SHT31;56704;54.242;12.442;2023-11-21T07:46:42;5.59;90.13
69503;SHT31;56704;54.242;12.442;2023-11-21T07:49:10;5.59;89.69
69503;SHT31;56704;54.242;12.442;2023-11-21T07:51:36;5.58;89.49
69503;SHT31;56704;54.242;12.442;2023-11-21T07:54:03;5.58;89.52
69503;SHT31;56704;54.242;12.442;2023-11-21T07:56:30;5.60;89.39
69503;SHT31;56704;54.242;12.442;2023-11-21T07:58:57;5.59;89.36
69503;SHT31;56704;54.242;12.442;2023-11-21T08:01:24;5.66;89.41
69503;SHT31;56704;54.242;12.442;2023-11-21T08:03:50;5.74;89.42
69503;SHT31;56704;54.242;12.442;2023-11-21T08:06:19;5.79;89.25
69503;SHT31;56704;54.242;12.442;2023-11-21T08:08:45;5.85;89.29
69503;SHT31;56704;54.242;12.442;2023-11-21T08:11:12;5.85;88.96
69503;SHT31;56704;54.242;12.442;2023-11-21T08:13:39;5.91;88.84
69503;SHT31;56704;54.242;12.442;2023-11-21T08:16:06;5.94;88.77
69503;SHT31;56704;54.242;12.442;2023-11-21T08:18:33;5.91;88.48
69503;SHT31;56704;54.242;12.442;2023-11-21T08:21:00;5.94;88.15
69503;SHT31;56704;54.242;12.442;2023-11-21T08:23:29;5.94;88.01
69503;SHT31;56704;54.242;12.442;2023-11-21T08:25:56;6.04;88.35
69503;SHT31;56704;54.242;12.442;2023-11-21T08:28:23;6.11;88.24
69503;SHT31;56704;54.242;12.442;2023-11-21T08:30:51;6.28;88.20
69503;SHT31;56704;54.242;12.442;2023-11-21T08:33:17;6.44;88.07
69503;SHT31;56704;54.242;12.442;2023-11-21T08:35:44;6.58;87.37
69503;SHT31;56704;54.242;12.442;2023-11-21T08:38:12;6.56;86.93
69503;SHT31;56704;54.242;12.442;2023-11-21T08:40:40;6.55;86.93
69503;SHT31;56704;54.242;12.442;2023-11-21T08:43:06;6.54;87.20
69503;SHT31;56704;54.242;12.442;2023-11-21T08:45:33;6.48;86.40
69503;SHT31;56704;54.242;12.442;2023-11-21T08:48:00;6.49;86.89
69503;SHT31;56704;54.242;12.442;2023-11-21T08:50:27;6.45;86.89
69503;SHT31;56704;54.242;12.442;2023-11-21T08:52:53;6.41;87.09
69503;SHT31;56704;54.242;12.442;2023-11-21T08:55:21;6.38;86.98
69503;SHT31;56704;54.242;12.442;2023-11-21T08:57:48;6.34;86.85
69503;SHT31;56704;54.242;12.442;2023-11-21T09:00:16;6.34;86.74
69503;SHT31;56704;54.242;12.442;2023-11-21T09:02:44;6.35;86.95
69503;SHT31;56704;54.242;12.442;2023-11-21T09:05:13;6.35;86.25
69503;SHT31;56704;54.242;12.442;2023-11-21T09:07:41;6.48;86.74
69503;SHT31;56704;54.242;12.442;2023-11-21T09:10:08;6.54;86.78
69503;SHT31;56704;54.242;12.442;2023-11-21T09:12:35;6.55;86.43
69503;SHT31;56704;54.242;12.442;2023-11-21T09:15:05;6.65;86.71
69503;SHT31;56704;54.242;12.442;2023-11-21T09:17:32;6.69;86.43
69503;SHT31;56704;54.242;12.442;2023-11-21T09:19:59;6.75;86.16
69503;SHT31;56704;54.242;12.442;2023-11-21T09:22:25;6.76;85.56
69503;SHT31;56704;54.242;12.442;2023-11-21T09:24:55;6.82;85.83
69503;SHT31;56704;54.242;12.442;2023-11-21T09:27:21;6.85;85.38
69503;SHT31;56704;54.242;12.442;2023-11-21T09:29:48;6.92;85.21
69503;SHT31;56704;54.242;12.442;2023-11-21T09:32:16;7.00;85.40
69503;SHT31;56704;54.242;12.442;2023-11-21T09:34:43;6.97;84.97
69503;SHT31;56704;54.242;12.442;2023-11-21T09:37:10;6.92;85.12
69503;SHT31;56704;54.242;12.442;2023-11-21T09:39:37;6.92;85.70
69503;SHT31;56704;54.242;12.442;2023-11-21T09:42:09;6.93;85.75
69503;SHT31;56704;54.242;12.442;2023-11-21T09:44:42;6.93;85.40
69503;SHT31;56704;54.242;12.442;2023-11-21T09:47:12;6.89;85.69
69503;SHT31;56704;54.242;12.442;2023-11-21T09:49:43;6.91;85.89
69503;SHT31;56704;54.242;12.442;2023-11-21T09:52:18;6.86;86.11
69503;SHT31;56704;54.242;12.442;2023-11-21T09:54:48;6.83;86.24
69503;SHT31;56704;54.242;12.442;2023-11-21T09:57:15;6.81;85.84
69503;SHT31;56704;54.242;12.442;2023-11-21T09:59:44;6.83;85.83
69503;SHT31;56704;54.242;12.442;2023-11-21T10:02:11;6.86;85.65
69503;SHT31;56704;54.242;12.442;2023-11-21T10:04:39;6.88;85.78
69503;SHT31;56704;54.242;12.442;2023-11-21T10:07:07;6.88;84.97
69503;SHT31;56704;54.242;12.442;2023-11-21T10:09:37;6.86;85.17
69503;SHT31;56704;54.242;12.442;2023-11-21T10:12:06;6.91;85.46
69503;SHT31;56704;54.242;12.442;2023-11-21T10:14:35;6.86;85.13
69503;SHT31;56704;54.242;12.442;2023-11-21T10:17:04;6.92;84.89
69503;SHT31;56704;54.242;12.442;2023-11-21T10:19:35;6.93;85.30
69503;SHT31;56704;54.242;12.442;2023-11-21T10:22:03;6.99;85.69
69503;SHT31;56704;54.242;12.442;2023-11-21T10:24:31;6.99;85.13
69503;SHT31;56704;54.242;12.442;2023-11-21T10:26:57;7.06;85.15
69503;SHT31;56704;54.242;12.442;2023-11-21T10:29:25;7.16;85.11
69503;SHT31;56704;54.242;12.442;2023-11-21T10:31:52;7.16;84.49
69503;SHT31;56704;54.242;12.442;2023-11-21T10:34:23;7.20;84.71
69503;SHT31;56704;54.242;12.442;2023-11-21T10:36:49;7.14;84.64
69503;SHT31;56704;54.242;12.442;2023-11-21T10:39:17;7.14;84.82
69503;SHT31;56704;54.242;12.442;2023-11-21T10:41:45;7.09;85.13
69503;SHT31;56704;54.242;12.442;2023-11-21T10:44:13;7.06;85.03
69503;SHT31;56704;54.242;12.442;2023-11-21T10:46:45;7.03;85.15
69503;SHT31;56704;54.242;12.442;2023-11-21T10:49:15;6.99;85.32
69503;SHT31;56704;54.242;12.442;2023-11-21T10:51:43;6.93;85.51
69503;SHT31;56704;54.242;12.442;2023-11-21T10:54:10;6.92;85.38
69503;SHT31;56704;54.242;12.442;2023-11-21T10:56:38;6.95;85.39
69503;SHT31;56704;54.242;12.442;2023-11-21T10:59:10;6.93;84.98
69503;SHT31;56704;54.242;12.442;2023-11-21T11:01:41;6.91;85.47
69503;SHT31;56704;54.242;12.442;2023-11-21T11:04:09;6.85;85.37
69503;SHT31;56704;54.242;12.442;2023-11-21T11:06:41;6.76;84.43
69503;SHT31;56704;54.242;12.442;2023-11-21T11:09:08;6.67;84.04
69503;SHT31;56704;54.242;12.442;2023-11-21T11:11:38;6.55;84.00
69503;SHT31;56704;54.242;12.442;2023-11-21T11:14:07;6.51;84.48
69503;SHT31;56704;54.242;12.442;2023-11-21T11:16:35;6.48;84.68
69503;SHT31;56704;54.242;12.442;2023-11-21T11:19:05;6.45;84.34
69503;SHT31;56704;54.242;12.442;2023-11-21T11:21:42;6.44;84.78
69503;SHT31;56704;54.242;12.442;2023-11-21T11:24:33;6.44;84.81
69503;SHT31;56704;54.242;12.442;2023-11-21T11:27:11;6.42;84.35
69503;SHT31;56704;54.242;12.442;2023-11-21T11:29:47;6.44;84.78
69503;SHT31;56704;54.242;12.442;2023-11-21T11:32:23;6.45;85.24
69503;SHT31;56704;54.242;12.442;2023-11-21T11:35:00;6.45;85.36
69503;SHT31;56704;54.242;12.442;2023-11-21T11:37:28;6.35;84.74
69503;SHT31;56704;54.242;12.442;2023-11-21T11:39:55;6.35;85.07
69503;SHT31;56704;54.242;12.442;2023-11-21T11:42:22;6.30;84.74
69503;SHT31;56704;54.242;12.442;2023-11-21T11:44:51;6.25;84.71
69503;SHT31;56704;54.242;12.442;2023-11-21T11:47:22;6.24;84.80
69503;SHT31;56704;54.242;12.442;2023-11-21T11:50:00;6.20;84.72
69503;SHT31;56704;54.242;12.442;2023-11-21T11:52:36;6.18;84.61
69503;SHT31;56704;54.242;12.442;2023-11-21T11:55:04;6.11;83.63
69503;SHT31;56704;54.242;12.442;2023-11-21T11:57:33;6.16;84.24
69503;SHT31;56704;54.242;12.442;2023-11-21T12:00:11;6.18;84.67
69503;SHT31;56704;54.242;12.442;2023-11-21T12:02:44;6.13;84.58
69503;SHT31;56704;54.242;12.442;2023-11-21T12:05:12;6.14;84.36
69503;SHT31;56704;54.242;12.442;2023-11-21T12:07:42;6.10;84.64
69503;SHT31;56704;54.242;12.442;2023-11-21T12:10:11;6.03;83.92
69503;SHT31;56704;54.242;12.442;2023-11-21T12:12:42;5.99;84.34
69503;SHT31;56704;54.242;12.442;2023-11-21T12:15:09;6.04;84.71
69503;SHT31;56704;54.242;12.442;2023-11-21T12:17:37;5.97;83.27
69503;SHT31;56704;54.242;12.442;2023-11-21T12:20:06;5.97;83.83
69503;SHT31;56704;54.242;12.442;2023-11-21T12:22:42;5.96;84.07
69503;SHT31;56704;54.242;12.442;2023-11-21T12:25:09;5.99;84.26
69503;SHT31;56704;54.242;12.442;2023-11-21T12:27:40;5.94;83.68
69503;SHT31;56704;54.242;12.442;2023-11-21T12:30:07;5.93;82.99
69503;SHT31;56704;54.242;12.442;2023-11-21T12:32:38;5.87;83.44
69503;SHT31;56704;54.242;12.442;2023-11-21T12:35:08;5.86;83.22
69503;SHT31;56704;54.242;12.442;2023-11-21T12:37:35;5.87;83.59
69503;SHT31;56704;54.242;12.442;2023-11-21T12:40:02;5.81;83.54
69503;SHT31;56704;54.242;12.442;2023-11-21T12:42:29;5.80;83.59
69503;SHT31;56704;54.242;12.442;2023-11-21T12:45:09;5.73;83.49
69503;SHT31;56704;54.242;12.442;2023-11-21T12:47:41;5.71;84.20
69503;SHT31;56704;54.242;12.442;2023-11-21T12:50:09;5.66;83.88
69503;SHT31;56704;54.242;12.442;2023-11-21T12:52:41;5.62;84.21
69503;SHT31;56704;54.242;12.442;2023-11-21T12:55:13;5.58;84.48
69503;SHT31;56704;54.242;12.442;2023-11-21T12:57:42;5.58;85.06
69503;SHT31;56704;54.242;12.442;2023-11-21T13:00:10;5.56;85.21
69503;SHT31;56704;54.242;12.442;2023-11-21T13:02:41;5.56;85.13
69503;SHT31;56704;54.242;12.442;2023-11-21T13:05:10;5.55;85.09
69503;SHT31;56704;54.242;12.442;2023-11-21T13:07:46;5.48;85.04
69503;SHT31;56704;54.242;12.442;2023-11-21T13:10:14;5.48;85.35
69503;SHT31;56704;54.242;12.442;2023-11-21T13:12:43;5.49;85.91
69503;SHT31;56704;54.242;12.442;2023-11-21T13:15:13;5.43;85.65
69503;SHT31;56704;54.242;12.442;2023-11-21T13:17:43;5.39;85.55
69503;SHT31;56704;54.242;12.442;2023-11-21T13:20:12;5.39;85.72
69503;SHT31;56704;54.242;12.442;2023-11-21T13:22:45;5.40;85.91
69503;SHT31;56704;54.242;12.442;2023-11-21T13:25:12;5.39;86.18
69503;SHT31;56704;54.242;12.442;2023-11-21T13:27:40;5.40;86.51
69503;SHT31;56704;54.242;12.442;2023-11-21T13:30:10;5.34;85.80
69503;SHT31;56704;54.242;12.442;2023-11-21T13:32:40;5.25;85.89
69503;SHT31;56704;54.242;12.442;2023-11-21T13:35:07;5.27;86.27
69503;SHT31;56704;54.242;12.442;2023-11-21T13:37:41;5.17;85.37
69503;SHT31;56704;54.242;12.442;2023-11-21T13:40:11;5.09;85.17
69503;SHT31;56704;54.242;12.442;2023-11-21T13:42:40;5.01;84.97
69503;SHT31;56704;54.242;12.442;2023-11-21T13:45:09;5.02;85.86
69503;SHT31;56704;54.242;12.442;2023-11-21T13:47:35;4.97;86.02
69503;SHT31;56704;54.242;12.442;2023-11-21T13:50:04;4.99;86.51
69503;SHT31;56704;54.242;12.442;2023-11-21T13:52:33;4.91;85.94
69503;SHT31;56704;54.242;12.442;2023-11-21T13:55:03;4.87;86.21
69503;SHT31;56704;54.242;12.442;2023-11-21T13:57:31;4.83;85.76
69503;SHT31;56704;54.242;12.442;2023-11-21T13:59:58;4.77;85.90
69503;SHT31;56704;54.242;12.442;2023-11-21T14:02:26;4.76;86.36
69503;SHT31;56704;54.242;12.442;2023-11-21T14:04:59;4.71;86.54
69503;SHT31;56704;54.242;12.442;2023-11-21T14:07:34;4.67;86.75
69503;SHT31;56704;54.242;12.442;2023-11-21T14:10:02;4.66;86.65
69503;SHT31;56704;54.242;12.442;2023-11-21T14:12:30;4.64;86.84
69503;SHT31;56704;54.242;12.442;2023-11-21T14:15:00;4.67;87.04
69503;SHT31;56704;54.242;12.442;2023-11-21T14:17:28;4.67;87.33
69503;SHT31;56704;54.242;12.442;2023-11-21T14:19:54;4.61;87.17
69503;SHT31;56704;54.242;12.442;2023-11-21T14:22:21;4.58;87.14
69503;SHT31;56704;54.242;12.442;2023-11-21T14:24:51;4.60;87.22
69503;SHT31;56704;54.242;12.442;2023-11-21T14:27:19;4.58;87.32
69503;SHT31;56704;54.242;12.442;2023-11-21T14:29:53;4.56;87.32
69503;SHT31;56704;54.242;12.442;2023-11-21T14:32:22;4.52;87.19
69503;SHT31;56704;54.242;12.442;2023-11-21T14:34:49;4.44;87.02
69503;SHT31;56704;54.242;12.442;2023-11-21T14:37:16;4.46;87.46
69503;SHT31;56704;54.242;12.442;2023-11-21T14:39:43;4.42;87.58
69503;SHT31;56704;54.242;12.442;2023-11-21T14:42:13;4.39;87.60
69503;SHT31;56704;54.242;12.442;2023-11-21T14:44:42;4.35;87.83
69503;SHT31;56704;54.242;12.442;2023-11-21T14:47:09;4.29;88.05
69503;SHT31;56704;54.242;12.442;2023-11-21T14:49:41;4.30;88.23
69503;SHT31;56704;54.242;12.442;2023-11-21T14:52:18;4.29;88.57
69503;SHT31;56704;54.242;12.442;2023-11-21T14:54:57;4.26;88.64
69503;SHT31;56704;54.242;12.442;2023-11-21T14:57:45;4.25;88.52
69503;SHT31;56704;54.242;12.442;2023-11-21T15:00:16;4.22;88.39
69503;SHT31;56704;54.242;12.442;2023-11-21T15:02:57;4.26;88.58
69503;SHT31;56704;54.242;12.442;2023-11-21T15:05:24;4.26;88.72
69503;SHT31;56704;54.242;12.442;2023-11-21T15:07:52;4.26;88.79
69503;SHT31;56704;54.242;12.442;2023-11-21T15:10:21;4.28;88.80
69503;SHT31;56704;54.242;12.442;2023-11-21T15:12:56;4.29;88.92
69503;SHT31;56704;54.242;12.442;2023-11-21T15:15:24;4.32;89.01
69503;SHT31;56704;54.242;12.442;2023-11-21T15:17:53;4.29;88.90
69503;SHT31;56704;54.242;12.442;2023-11-21T15:20:19;4.29;88.89
69503;SHT31;56704;54.242;12.442;2023-11-21T15:22:47;4.28;88.91
69503;SHT31;56704;54.242;12.442;2023-11-21T15:25:14;4.33;89.04
69503;SHT31;56704;54.242;12.442;2023-11-21T15:27:41;4.29;88.92
69503;SHT31;56704;54.242;12.442;2023-11-21T15:30:08;4.30;89.04
69503;SHT31;56704;54.242;12.442;2023-11-21T15:32:36;4.30;89.21
69503;SHT31;56704;54.242;12.442;2023-11-21T15:35:05;4.30;89.31
69503;SHT31;56704;54.242;12.442;2023-11-21T15:37:35;4.28;89.39